Annandale, Minnesota
Current Conditions -  °F | °C
As of 10:15 AM on Sunday 21 Dec 2014 (Local Time) from KMGG Reporting Station
Moderate Fog Moderate Fog  
Wind Chill: 30°   Ceiling: 100
Heat Index: 34°   Visibility: 0.5mi
Dew Point: 34°   Wind: 5mph
Humidity: 100%   Direction: 120°ESE
Pressure: 29.84"   Gusts: NA
Location:  45.26°N, 94.12°W
Report Text: KMGG 211615Z AUTO 12004KT 1/2SM FG OVC001 01/01 A2984 RMK AO2 T00100010
Loading
Personal Weather Stations






























Interactive Weather Map New forecast layout! Learn more

10-Day Weather Forecast

Advertisements
Track Severe Weather on mobile